sensor_id;sensor_type;location;lat;lon;timestamp;pressure;altitude;pressure_sealevel;temperature
78369;BMP280;71113;43.092;-89.268;2024-01-27T00:01:39;98826.25;;;20.25
78369;BMP280;71113;43.092;-89.268;2024-01-27T00:04:05;98827.47;;;20.19
78369;BMP280;71113;43.092;-89.268;2024-01-27T00:06:31;98831.53;;;20.16
78369;BMP280;71113;43.092;-89.268;2024-01-27T00:08:57;98823.47;;;20.13
78369;BMP280;71113;43.092;-89.268;2024-01-27T00:11:23;98836.22;;;20.10
78369;BMP280;71113;43.092;-89.268;2024-01-27T04:57:53;98848.25;;;19.11
78369;BMP280;71113;43.092;-89.268;2024-01-27T05:00:20;98847.28;;;19.07
78369;BMP280;71113;43.092;-89.268;2024-01-27T05:02:46;98851.81;;;19.07
78369;BMP280;71113;43.092;-89.268;2024-01-27T05:05:12;98854.75;;;19.05
78369;BMP280;71113;43.092;-89.268;2024-01-27T05:07:38;98863.28;;;19.02
78369;BMP280;71113;43.092;-89.268;2024-01-27T05:10:05;98862.34;;;18.98
78369;BMP280;71113;43.092;-89.268;2024-01-27T05:12:31;98854.97;;;18.95
78369;BMP280;71113;43.092;-89.268;2024-01-27T05:14:57;98855.59;;;18.92
78369;BMP280;71113;43.092;-89.268;2024-01-27T05:17:23;98856.97;;;18.90
78369;BMP280;71113;43.092;-89.268;2024-01-27T05:19:51;98858.38;;;18.87
78369;BMP280;71113;43.092;-89.268;2024-01-27T05:22:19;98862.41;;;18.84
78369;BMP280;71113;43.092;-89.268;2024-01-27T05:24:45;98863.78;;;18.82
78369;BMP280;71113;43.092;-89.268;2024-01-27T05:27:11;98867.03;;;18.79
78369;BMP280;71113;43.092;-89.268;2024-01-27T05:29:37;98865.47;;;18.78
78369;BMP280;71113;43.092;-89.268;2024-01-27T05:32:03;98866.06;;;18.75
78369;BMP280;71113;43.092;-89.268;2024-01-27T05:34:29;98873.50;;;18.73
78369;BMP280;71113;43.092;-89.268;2024-01-27T05:36:55;98868.03;;;18.69
78369;BMP280;71113;43.092;-89.268;2024-01-27T05:39:21;98869.13;;;18.68
78369;BMP280;71113;43.092;-89.268;2024-01-27T05:41:47;98857.88;;;18.63
78369;BMP280;71113;43.092;-89.268;2024-01-27T05:44:13;98853.38;;;18.63
78369;BMP280;71113;43.092;-89.268;2024-01-27T05:46:40;98860.06;;;18.61
78369;BMP280;71113;43.092;-89.268;2024-01-27T05:49:06;98853.81;;;18.56
78369;BMP280;71113;43.092;-89.268;2024-01-27T05:51:32;98845.41;;;18.54
78369;BMP280;71113;43.092;-89.268;2024-01-27T05:57:20;98848.66;;;18.51
78369;BMP280;71113;43.092;-89.268;2024-01-27T05:59:46;98854.97;;;18.50
78369;BMP280;71113;43.092;-89.268;2024-01-27T06:02:12;98852.19;;;18.47
78369;BMP280;71113;43.092;-89.268;2024-01-27T06:04:38;98856.97;;;18.45
78369;BMP280;71113;43.092;-89.268;2024-01-27T06:07:03;98859.09;;;18.43
78369;BMP280;71113;43.092;-89.268;2024-01-27T06:09:29;98859.09;;;18.43
78369;BMP280;71113;43.092;-89.268;2024-01-27T06:11:59;98857.34;;;18.38
78369;BMP280;71113;43.092;-89.268;2024-01-27T06:14:26;98864.84;;;18.36
78369;BMP280;71113;43.092;-89.268;2024-01-27T06:16:51;98864.31;;;18.34
78369;BMP280;71113;43.092;-89.268;2024-01-27T06:19:18;98864.66;;;18.33
78369;BMP280;71113;43.092;-89.268;2024-01-27T06:21:44;98859.16;;;18.29
78369;BMP280;71113;43.092;-89.268;2024-01-27T06:24:10;98870.06;;;18.28
78369;BMP280;71113;43.092;-89.268;2024-01-27T06:26:35;98864.25;;;18.25
78369;BMP280;71113;43.092;-89.268;2024-01-27T06:29:01;98868.28;;;18.23
78369;BMP280;71113;43.092;-89.268;2024-01-27T06:31:28;98870.91;;;18.23
78369;BMP280;71113;43.092;-89.268;2024-01-27T06:33:55;98868.06;;;18.19
78369;BMP280;71113;43.092;-89.268;2024-01-27T06:36:21;98868.41;;;18.18
78369;BMP280;71113;43.092;-89.268;2024-01-27T06:38:50;98865.25;;;18.16
78369;BMP280;71113;43.092;-89.268;2024-01-27T06:41:17;98860.25;;;18.14
78369;BMP280;71113;43.092;-89.268;2024-01-27T06:43:42;98867.44;;;18.14
78369;BMP280;71113;43.092;-89.268;2024-01-27T06:46:08;98866.91;;;18.12
78369;BMP280;71113;43.092;-89.268;2024-01-27T06:48:34;98868.59;;;18.08
78369;BMP280;71113;43.092;-89.268;2024-01-27T06:51:00;98864.13;;;18.08
78369;BMP280;71113;43.092;-89.268;2024-01-27T06:53:26;98860.97;;;18.06
78369;BMP280;71113;43.092;-89.268;2024-01-27T06:55:52;98860.19;;;18.06
78369;BMP280;71113;43.092;-89.268;2024-01-27T06:58:18;98858.13;;;18.03
78369;BMP280;71113;43.092;-89.268;2024-01-27T07:00:44;98864.75;;;18.00
78369;BMP280;71113;43.092;-89.268;2024-01-27T07:03:11;98859.81;;;17.99
78369;BMP280;71113;43.092;-89.268;2024-01-27T07:05:37;98863.53;;;17.98
78369;BMP280;71113;43.092;-89.268;2024-01-27T07:08:07;98861.50;;;17.94
78369;BMP280;71113;43.092;-89.268;2024-01-27T07:10:34;98855.44;;;17.94
78369;BMP280;71113;43.092;-89.268;2024-01-27T07:13:00;98860.97;;;17.92
78369;BMP280;71113;43.092;-89.268;2024-01-27T07:15:26;98856.78;;;17.91
78369;BMP280;71113;43.092;-89.268;2024-01-27T07:17:52;98856.78;;;17.91
78369;BMP280;71113;43.092;-89.268;2024-01-27T07:20:19;98862.66;;;17.88
78369;BMP280;71113;43.092;-89.268;2024-01-27T07:22:47;98870.06;;;17.86
78369;BMP280;71113;43.092;-89.268;2024-01-27T07:25:13;98865.09;;;17.85
78369;BMP280;71113;43.092;-89.268;2024-01-27T07:27:39;98860.41;;;17.82
78369;BMP280;71113;43.092;-89.268;2024-01-27T07:30:06;98866.47;;;17.82
78369;BMP280;71113;43.092;-89.268;2024-01-27T07:32:34;98870.19;;;17.81
78369;BMP280;71113;43.092;-89.268;2024-01-27T07:35:01;98866.28;;;17.79
78369;BMP280;71113;43.092;-89.268;2024-01-27T07:37:27;98859.44;;;17.78
78369;BMP280;71113;43.092;-89.268;2024-01-27T07:39:53;98869.19;;;17.77
78369;BMP280;71113;43.092;-89.268;2024-01-27T07:42:18;98866.09;;;17.75
78369;BMP280;71113;43.092;-89.268;2024-01-27T07:44:44;98882.22;;;17.74
78369;BMP280;71113;43.092;-89.268;2024-01-27T07:47:10;98875.66;;;17.71
78369;BMP280;71113;43.092;-89.268;2024-01-27T07:49:36;98878.56;;;17.70
78369;BMP280;71113;43.092;-89.268;2024-01-27T07:52:02;98878.09;;;17.68
78369;BMP280;71113;43.092;-89.268;2024-01-27T07:54:28;98878.09;;;17.68
78369;BMP280;71113;43.092;-89.268;2024-01-27T07:56:54;98882.09;;;17.65
78369;BMP280;71113;43.092;-89.268;2024-01-27T07:59:20;98873.69;;;17.63
78369;BMP280;71113;43.092;-89.268;2024-01-27T08:01:46;98876.59;;;17.61
78369;BMP280;71113;43.092;-89.268;2024-01-27T08:04:12;98876.94;;;17.60
78369;BMP280;71113;43.092;-89.268;2024-01-27T08:06:48;98882.50;;;17.58
78369;BMP280;71113;43.092;-89.268;2024-01-27T08:09:15;98882.50;;;17.58
78369;BMP280;71113;43.092;-89.268;2024-01-27T08:11:42;98881.19;;;17.56
78369;BMP280;71113;43.092;-89.268;2024-01-27T08:14:08;98885.72;;;17.55
78369;BMP280;71113;43.092;-89.268;2024-01-27T08:16:34;98887.84;;;17.53
78369;BMP280;71113;43.092;-89.268;2024-01-27T08:19:01;98884.72;;;17.51
78369;BMP280;71113;43.092;-89.268;2024-01-27T08:21:27;98883.94;;;17.51
78369;BMP280;71113;43.092;-89.268;2024-01-27T08:23:53;98880.03;;;17.48
78369;BMP280;71113;43.092;-89.268;2024-01-27T08:26:20;98872.13;;;17.48
78369;BMP280;71113;43.092;-89.268;2024-01-27T08:28:47;98864.50;;;17.47
78369;BMP280;71113;43.092;-89.268;2024-01-27T08:31:13;98857.66;;;17.46
78369;BMP280;71113;43.092;-89.268;2024-01-27T08:33:38;98854.53;;;17.44
78369;BMP280;71113;43.092;-89.268;2024-01-27T08:36:04;98852.97;;;17.43
78369;BMP280;71113;43.092;-89.268;2024-01-27T08:38:30;98852.16;;;17.42
78369;BMP280;71113;43.092;-89.268;2024-01-27T08:40:56;98843.00;;;17.40
78369;BMP280;71113;43.092;-89.268;2024-01-27T08:43:22;98836.16;;;17.39
78369;BMP280;71113;43.092;-89.268;2024-01-27T08:45:48;98840.63;;;17.38
78369;BMP280;71113;43.092;-89.268;2024-01-27T08:48:14;98838.78;;;17.39
78369;BMP280;71113;43.092;-89.268;2024-01-27T08:50:40;98828.06;;;17.35
78369;BMP280;71113;43.092;-89.268;2024-01-27T08:53:06;98828.06;;;17.35
78369;BMP280;71113;43.092;-89.268;2024-01-27T08:55:32;98828.34;;;17.33
78369;BMP280;71113;43.092;-89.268;2024-01-27T08:57:58;98832.03;;;17.32
78369;BMP280;71113;43.092;-89.268;2024-01-27T09:00:24;98825.22;;;17.31
78369;BMP280;71113;43.092;-89.268;2024-01-27T09:02:51;98827.34;;;17.29
78369;BMP280;71113;43.092;-89.268;2024-01-27T09:05:17;98817.88;;;17.28
78369;BMP280;71113;43.092;-89.268;2024-01-27T09:07:43;98815.25;;;17.28
78369;BMP280;71113;43.092;-89.268;2024-01-27T09:10:09;98809.19;;;17.28
78369;BMP280;71113;43.092;-89.268;2024-01-27T09:12:38;98817.38;;;17.26
78369;BMP280;71113;43.092;-89.268;2024-01-27T09:15:05;98815.84;;;17.25
78369;BMP280;71113;43.092;-89.268;2024-01-27T09:17:32;98802.94;;;17.24
78369;BMP280;71113;43.092;-89.268;2024-01-27T09:19:58;98803.72;;;17.24
78369;BMP280;71113;43.092;-89.268;2024-01-27T09:22:24;98793.75;;;17.21
78369;BMP280;71113;43.092;-89.268;2024-01-27T09:24:51;98794.06;;;17.20
78369;BMP280;71113;43.092;-89.268;2024-01-27T09:27:17;98800.38;;;17.19
78369;BMP280;71113;43.092;-89.268;2024-01-27T09:29:43;98789.06;;;17.18
78369;BMP280;71113;43.092;-89.268;2024-01-27T09:32:09;98792.75;;;17.17
78369;BMP280;71113;43.092;-89.268;2024-01-27T09:34:35;98791.22;;;17.16
78369;BMP280;71113;43.092;-89.268;2024-01-27T09:37:01;98783.59;;;17.15
78369;BMP280;71113;43.092;-89.268;2024-01-27T09:39:28;98789.63;;;17.15
78369;BMP280;71113;43.092;-89.268;2024-01-27T09:41:54;98784.66;;;17.14
78369;BMP280;71113;43.092;-89.268;2024-01-27T09:44:21;98790.22;;;17.12
78369;BMP280;71113;43.092;-89.268;2024-01-27T09:46:47;98786.00;;;17.11
78369;BMP280;71113;43.092;-89.268;2024-01-27T09:49:14;98788.63;;;17.11
78369;BMP280;71113;43.092;-89.268;2024-01-27T09:51:43;98792.38;;;17.10
78369;BMP280;71113;43.092;-89.268;2024-01-27T09:54:09;98795.00;;;17.10
78369;BMP280;71113;43.092;-89.268;2024-01-27T09:56:35;98796.09;;;17.09
78369;BMP280;71113;43.092;-89.268;2024-01-27T09:59:01;98796.34;;;17.08
78369;BMP280;71113;43.092;-89.268;2024-01-27T10:01:27;98794.78;;;17.07
78369;BMP280;71113;43.092;-89.268;2024-01-27T10:03:54;98797.44;;;17.07
78369;BMP280;71113;43.092;-89.268;2024-01-27T10:06:21;98799.59;;;17.04
78369;BMP280;71113;43.092;-89.268;2024-01-27T10:08:53;98800.38;;;17.05
78369;BMP280;71113;43.092;-89.268;2024-01-27T10:11:20;98803.56;;;17.02
78369;BMP280;71113;43.092;-89.268;2024-01-27T10:13:54;98803.88;;;17.00
78369;BMP280;71113;43.092;-89.268;2024-01-27T10:16:20;98818.91;;;17.00
78369;BMP280;71113;43.092;-89.268;2024-01-27T10:18:46;98819.97;;;16.99
78369;BMP280;71113;43.092;-89.268;2024-01-27T10:21:18;98828.94;;;16.98
78369;BMP280;71113;43.092;-89.268;2024-01-27T10:23:46;98836.06;;;16.97
78369;BMP280;71113;43.092;-89.268;2024-01-27T10:26:12;98836.06;;;16.97
78369;BMP280;71113;43.092;-89.268;2024-01-27T10:28:38;98830.28;;;16.95
78369;BMP280;71113;43.092;-89.268;2024-01-27T10:31:11;98819.00;;;16.95
78369;BMP280;71113;43.092;-89.268;2024-01-27T10:33:38;98826.91;;;16.95
78369;BMP280;71113;43.092;-89.268;2024-01-27T10:36:04;98843.00;;;16.93
78369;BMP280;71113;43.092;-89.268;2024-01-27T10:38:37;98851.94;;;16.92
78369;BMP280;71113;43.092;-89.268;2024-01-27T10:41:07;98849.59;;;16.91
78369;BMP280;71113;43.092;-89.268;2024-01-27T10:43:36;98848.81;;;16.90
78369;BMP280;71113;43.092;-89.268;2024-01-27T10:46:05;98839.63;;;16.88
78369;BMP280;71113;43.092;-89.268;2024-01-27T10:48:33;98834.38;;;16.88
78369;BMP280;71113;43.092;-89.268;2024-01-27T10:51:28;98827.53;;;16.87
78369;BMP280;71113;43.092;-89.268;2024-01-27T10:53:55;98830.19;;;16.87
78369;BMP280;71113;43.092;-89.268;2024-01-27T10:56:25;98828.31;;;16.87
78369;BMP280;71113;43.092;-89.268;2024-01-27T10:58:52;98824.41;;;16.85
78369;BMP280;71113;43.092;-89.268;2024-01-27T11:01:19;98832.31;;;16.85
78369;BMP280;71113;43.092;-89.268;2024-01-27T11:03:48;98853.69;;;16.83
78369;BMP280;71113;43.092;-89.268;2024-01-27T11:06:15;98855.53;;;16.83
78369;BMP280;71113;43.092;-89.268;2024-01-27T11:08:43;98853.97;;;16.82
78369;BMP280;71113;43.092;-89.268;2024-01-27T11:11:10;98850.28;;;16.83
78369;BMP280;71113;43.092;-89.268;2024-01-27T11:13:36;98844.47;;;16.81
78369;BMP280;71113;43.092;-89.268;2024-01-27T11:16:03;98849.28;;;16.79
78369;BMP280;71113;43.092;-89.268;2024-01-27T11:18:29;98847.72;;;16.78
78369;BMP280;71113;43.092;-89.268;2024-01-27T11:20:57;98860.59;;;16.79
78369;BMP280;71113;43.092;-89.268;2024-01-27T11:23:33;98854.03;;;16.77
78369;BMP280;71113;43.092;-89.268;2024-01-27T11:26:07;98855.53;;;16.83
78369;BMP280;71113;43.092;-89.268;2024-01-27T11:28:33;98844.72;;;16.84
78369;BMP280;71113;43.092;-89.268;2024-01-27T11:31:03;98848.06;;;16.90
78369;BMP280;71113;43.092;-89.268;2024-01-27T11:33:29;98846.41;;;16.94
78369;BMP280;71113;43.092;-89.268;2024-01-27T11:36:02;98845.53;;;16.98
78369;BMP280;71113;43.092;-89.268;2024-01-27T11:38:31;98844.66;;;17.03
78369;BMP280;71113;43.092;-89.268;2024-01-27T11:40:57;98840.38;;;17.07
78369;BMP280;71113;43.092;-89.268;2024-01-27T11:43:23;98852.69;;;17.12
78369;BMP280;71113;43.092;-89.268;2024-01-27T11:46:00;98856.03;;;17.17
78369;BMP280;71113;43.092;-89.268;2024-01-27T11:48:26;98870.72;;;17.23
78369;BMP280;71113;43.092;-89.268;2024-01-27T11:51:11;98863.78;;;17.27
78369;BMP280;71113;43.092;-89.268;2024-01-27T11:53:37;98857.94;;;17.30
78369;BMP280;71113;43.092;-89.268;2024-01-27T11:56:04;98867.53;;;17.40
78369;BMP280;71113;43.092;-89.268;2024-01-27T11:58:30;98867.13;;;17.47
78369;BMP280;71113;43.092;-89.268;2024-01-27T12:00:57;98863.69;;;17.46
78369;BMP280;71113;43.092;-89.268;2024-01-27T12:03:24;98864.50;;;17.47
78369;BMP280;71113;43.092;-89.268;2024-01-27T12:05:50;98873.25;;;17.42
78369;BMP280;71113;43.092;-89.268;2024-01-27T12:08:17;98886.78;;;17.41
78369;BMP280;71113;43.092;-89.268;2024-01-27T12:10:43;98884.63;;;17.43
78369;BMP280;71113;43.092;-89.268;2024-01-27T12:13:09;98875.03;;;17.47
78369;BMP280;71113;43.092;-89.268;2024-01-27T12:15:35;98873.88;;;17.53
78369;BMP280;71113;43.092;-89.268;2024-01-27T12:18:01;98880.91;;;17.57
78369;BMP280;71113;43.092;-89.268;2024-01-27T12:20:29;98887.16;;;17.61
78369;BMP280;71113;43.092;-89.268;2024-01-27T12:23:03;98897.16;;;17.64
78369;BMP280;71113;43.092;-89.268;2024-01-27T12:25:29;98896.19;;;17.60
78369;BMP280;71113;43.092;-89.268;2024-01-27T12:27:55;98902.53;;;17.59
78369;BMP280;71113;43.092;-89.268;2024-01-27T12:30:21;98899.88;;;17.59
78369;BMP280;71113;43.092;-89.268;2024-01-27T12:32:48;98913.06;;;17.59
78369;BMP280;71113;43.092;-89.268;2024-01-27T12:35:13;98905.16;;;17.59
78369;BMP280;71113;43.092;-89.268;2024-01-27T12:37:40;98911.22;;;17.60
78369;BMP280;71113;43.092;-89.268;2024-01-27T12:40:26;98906.63;;;17.65
78369;BMP280;71113;43.092;-89.268;2024-01-27T12:42:52;98909.94;;;17.71
78369;BMP280;71113;43.092;-89.268;2024-01-27T12:45:17;98923.03;;;17.76
78369;BMP280;71113;43.092;-89.268;2024-01-27T12:47:44;98916.41;;;17.79
78369;BMP280;71113;43.092;-89.268;2024-01-27T12:50:10;98917.31;;;17.74
78369;BMP280;71113;43.092;-89.268;2024-01-27T12:52:37;98921.81;;;17.74
78369;BMP280;71113;43.092;-89.268;2024-01-27T12:55:04;98916.78;;;17.72
78369;BMP280;71113;43.092;-89.268;2024-01-27T12:57:30;98928.13;;;17.73
78369;BMP280;71113;43.092;-89.268;2024-01-27T12:59:56;98922.84;;;17.73
78369;BMP280;71113;43.092;-89.268;2024-01-27T13:02:22;98919.44;;;17.72
78369;BMP280;71113;43.092;-89.268;2024-01-27T13:04:49;98916.53;;;17.74
78369;BMP280;71113;43.092;-89.268;2024-01-27T13:07:15;98927.25;;;17.77
78369;BMP280;71113;43.092;-89.268;2024-01-27T13:09:41;98924.00;;;17.80
78369;BMP280;71113;43.092;-89.268;2024-01-27T13:12:07;98920.53;;;17.85
78369;BMP280;71113;43.092;-89.268;2024-01-27T13:14:33;98921.78;;;17.87
78369;BMP280;71113;43.092;-89.268;2024-01-27T13:16:58;98930.78;;;17.86
78369;BMP280;71113;43.092;-89.268;2024-01-27T13:19:27;98939.78;;;17.85
78369;BMP280;71113;43.092;-89.268;2024-01-27T13:21:53;98934.50;;;17.85
78369;BMP280;71113;43.092;-89.268;2024-01-27T13:24:19;98925.03;;;17.84
78369;BMP280;71113;43.092;-89.268;2024-01-27T13:26:45;98938.22;;;17.84
78369;BMP280;71113;43.092;-89.268;2024-01-27T13:29:12;98934.97;;;17.87
78369;BMP280;71113;43.092;-89.268;2024-01-27T13:31:38;98936.47;;;17.93
78369;BMP280;71113;43.092;-89.268;2024-01-27T13:34:03;98940.34;;;17.96
78369;BMP280;71113;43.092;-89.268;2024-01-27T13:36:30;98956.41;;;18.00
78369;BMP280;71113;43.092;-89.268;2024-01-27T13:38:57;98952.78;;;17.95
78369;BMP280;71113;43.092;-89.268;2024-01-27T13:41:23;98948.59;;;17.94
78369;BMP280;71113;43.092;-89.268;2024-01-27T13:43:49;98936.19;;;17.95
78369;BMP280;71113;43.092;-89.268;2024-01-27T13:46:15;98932.75;;;17.94
78369;BMP280;71113;43.092;-89.268;2024-01-27T13:48:41;98933.84;;;17.93
78369;BMP280;71113;43.092;-89.268;2024-01-27T13:51:07;98920.63;;;17.93
78369;BMP280;71113;43.092;-89.268;2024-01-27T13:53:33;98924.06;;;17.94
78369;BMP280;71113;43.092;-89.268;2024-01-27T13:55:59;98924.06;;;17.94
78369;BMP280;71113;43.092;-89.268;2024-01-27T13:58:26;98918.44;;;17.95
78369;BMP280;71113;43.092;-89.268;2024-01-27T14:00:52;98926.38;;;17.95
78369;BMP280;71113;43.092;-89.268;2024-01-27T14:03:18;98923.94;;;17.85
78369;BMP280;71113;43.092;-89.268;2024-01-27T14:05:44;98913.97;;;17.82
78369;BMP280;71113;43.092;-89.268;2024-01-27T14:08:12;98911.81;;;17.84
78369;BMP280;71113;43.092;-89.268;2024-01-27T14:10:38;98906.53;;;17.84
78369;BMP280;71113;43.092;-89.268;2024-01-27T14:13:05;98920.53;;;17.85
78369;BMP280;71113;43.092;-89.268;2024-01-27T14:15:37;98917.09;;;17.84
78369;BMP280;71113;43.092;-89.268;2024-01-27T14:18:03;98914.47;;;17.84
78369;BMP280;71113;43.092;-89.268;2024-01-27T14:20:33;98911.81;;;17.84
78369;BMP280;71113;43.092;-89.268;2024-01-27T14:23:03;98925.81;;;17.85
78369;BMP280;71113;43.092;-89.268;2024-01-27T14:25:29;98920.03;;;17.83
78369;BMP280;71113;43.092;-89.268;2024-01-27T14:27:55;98925.03;;;17.84
78369;BMP280;71113;43.092;-89.268;2024-01-27T14:30:21;98913.19;;;17.82
78369;BMP280;71113;43.092;-89.268;2024-01-27T14:32:48;98916.63;;;17.82
78369;BMP280;71113;43.092;-89.268;2024-01-27T14:35:14;98930.59;;;17.83
78369;BMP280;71113;43.092;-89.268;2024-01-27T14:37:40;98921.38;;;17.80
78369;BMP280;71113;43.092;-89.268;2024-01-27T14:40:06;98910.81;;;17.80
78369;BMP280;71113;43.092;-89.268;2024-01-27T14:42:33;98903.41;;;17.82
78369;BMP280;71113;43.092;-89.268;2024-01-27T14:45:01;98904.19;;;17.83
78369;BMP280;71113;43.092;-89.268;2024-01-27T14:47:27;98904.97;;;17.83
78369;BMP280;71113;43.092;-89.268;2024-01-27T14:49:53;98898.13;;;17.82
78369;BMP280;71113;43.092;-89.268;2024-01-27T14:52:19;98890.47;;;17.81
78369;BMP280;71113;43.092;-89.268;2024-01-27T14:54:47;98892.84;;;17.82
78369;BMP280;71113;43.092;-89.268;2024-01-27T14:57:13;98878.59;;;17.83
78369;BMP280;71113;43.092;-89.268;2024-01-27T14:59:39;98867.53;;;17.81
78369;BMP280;71113;43.092;-89.268;2024-01-27T15:02:05;98850.63;;;17.82
78369;BMP280;71113;43.092;-89.268;2024-01-27T15:04:33;98847.69;;;17.84
78369;BMP280;71113;43.092;-89.268;2024-01-27T15:06:59;98843.97;;;17.85
78369;BMP280;71113;43.092;-89.268;2024-01-27T15:09:25;98822.88;;;17.85
78369;BMP280;71113;43.092;-89.268;2024-01-27T15:11:51;98815.72;;;17.85
78369;BMP280;71113;43.092;-89.268;2024-01-27T15:14:17;98819.16;;;17.86
78369;BMP280;71113;43.092;-89.268;2024-01-27T15:16:45;98830.78;;;17.85
78369;BMP280;71113;43.092;-89.268;2024-01-27T15:19:11;98832.66;;;17.84
78369;BMP280;71113;43.092;-89.268;2024-01-27T15:21:37;98834.97;;;17.86
78369;BMP280;71113;43.092;-89.268;2024-01-27T15:24:03;98847.09;;;17.87
78369;BMP280;71113;43.092;-89.268;2024-01-27T15:26:29;98853.94;;;17.88
78369;BMP280;71113;43.092;-89.268;2024-01-27T15:28:57;98859.22;;;17.88
78369;BMP280;71113;43.092;-89.268;2024-01-27T15:31:22;98865.88;;;17.85
78369;BMP280;71113;43.092;-89.268;2024-01-27T15:33:48;98859.03;;;17.84
78369;BMP280;71113;43.092;-89.268;2024-01-27T15:36:14;98868.03;;;17.83
78369;BMP280;71113;43.092;-89.268;2024-01-27T15:38:40;98876.25;;;17.82
78369;BMP280;71113;43.092;-89.268;2024-01-27T15:41:06;98866.47;;;17.82
78369;BMP280;71113;43.092;-89.268;2024-01-27T15:43:36;98868.03;;;17.83
78369;BMP280;71113;43.092;-89.268;2024-01-27T15:46:02;98864.31;;;17.84
78369;BMP280;71113;43.092;-89.268;2024-01-27T15:48:33;98859.34;;;17.83
78369;BMP280;71113;43.092;-89.268;2024-01-27T15:51:00;98854.53;;;17.85
78369;BMP280;71113;43.092;-89.268;2024-01-27T15:53:26;98860.59;;;17.85
78369;BMP280;71113;43.092;-89.268;2024-01-27T15:55:52;98850.03;;;17.85
78369;BMP280;71113;43.092;-89.268;2024-01-27T15:58:18;98856.09;;;17.86
78369;BMP280;71113;43.092;-89.268;2024-01-27T16:00:46;98860.59;;;17.85
78369;BMP280;71113;43.092;-89.268;2024-01-27T16:03:12;98854.53;;;17.85
78369;BMP280;71113;43.092;-89.268;2024-01-27T16:05:38;98860.31;;;17.87
78369;BMP280;71113;43.092;-89.268;2024-01-27T16:08:04;98866.66;;;17.86
78369;BMP280;71113;43.092;-89.268;2024-01-27T16:10:30;98862.66;;;17.88
78369;BMP280;71113;43.092;-89.268;2024-01-27T16:12:56;98853.94;;;17.88
78369;BMP280;71113;43.092;-89.268;2024-01-27T16:15:21;98858.19;;;17.89
78369;BMP280;71113;43.092;-89.268;2024-01-27T16:17:47;98859.22;;;17.88
78369;BMP280;71113;43.092;-89.268;2024-01-27T16:20:13;98850.03;;;17.85
78369;BMP280;71113;43.092;-89.268;2024-01-27T16:22:39;98848.97;;;17.86
78369;BMP280;71113;43.092;-89.268;2024-01-27T16:25:05;98851.59;;;17.86
78369;BMP280;71113;43.092;-89.268;2024-01-27T16:27:31;98846.03;;;17.88
78369;BMP280;71113;43.092;-89.268;2024-01-27T16:29:57;98844.16;;;17.88
78369;BMP280;71113;43.092;-89.268;2024-01-27T16:32:23;98844.97;;;17.89
78369;BMP280;71113;43.092;-89.268;2024-01-27T16:34:49;98836.25;;;17.88
78369;BMP280;71113;43.092;-89.268;2024-01-27T16:37:15;98837.84;;;17.89
78369;BMP280;71113;43.092;-89.268;2024-01-27T16:39:41;98844.16;;;17.88
78369;BMP280;71113;43.092;-89.268;2024-01-27T16:42:06;98850.53;;;17.87
78369;BMP280;71113;43.092;-89.268;2024-01-27T16:44:32;98846.31;;;17.86
78369;BMP280;71113;43.092;-89.268;2024-01-27T16:46:58;98836.34;;;17.83
78369;BMP280;71113;43.092;-89.268;2024-01-27T16:49:24;98845.34;;;17.82
78369;BMP280;71113;43.092;-89.268;2024-01-27T16:51:50;98846.44;;;17.81
78369;BMP280;71113;43.092;-89.268;2024-01-27T16:54:16;98842.97;;;17.81
78369;BMP280;71113;43.092;-89.268;2024-01-27T16:56:43;98848.25;;;17.81
78369;BMP280;71113;43.092;-89.268;2024-01-27T16:59:09;98852.00;;;17.80
78369;BMP280;71113;43.092;-89.268;2024-01-27T17:01:35;98849.66;;;17.78
78369;BMP280;71113;43.092;-89.268;2024-01-27T17:04:01;98853.34;;;17.77
78369;BMP280;71113;43.092;-89.268;2024-01-27T17:06:27;98859.72;;;17.76
78369;BMP280;71113;43.092;-89.268;2024-01-27T17:08:53;98852.13;;;17.75
78369;BMP280;71113;43.092;-89.268;2024-01-27T17:11:19;98855.03;;;17.73
78369;BMP280;71113;43.092;-89.268;2024-01-27T17:13:45;98855.31;;;17.72
78369;BMP280;71113;43.092;-89.268;2024-01-27T17:16:11;98866.66;;;17.72
78369;BMP280;71113;43.092;-89.268;2024-01-27T17:18:37;98858.28;;;17.70
78369;BMP280;71113;43.092;-89.268;2024-01-27T17:21:04;98857.19;;;17.71
78369;BMP280;71113;43.092;-89.268;2024-01-27T17:23:30;98864.34;;;17.71
78369;BMP280;71113;43.092;-89.268;2024-01-27T17:25:56;98862.44;;;17.71
78369;BMP280;71113;43.092;-89.268;2024-01-27T17:28:22;98861.97;;;17.69
78369;BMP280;71113;43.092;-89.268;2024-01-27T17:30:48;98857.75;;;17.68
78369;BMP280;71113;43.092;-89.268;2024-01-27T17:33:15;98864.13;;;17.67
78369;BMP280;71113;43.092;-89.268;2024-01-27T17:35:40;98861.78;;;17.65
78369;BMP280;71113;43.092;-89.268;2024-01-27T17:38:06;98852.28;;;17.64
78369;BMP280;71113;43.092;-89.268;2024-01-27T17:40:32;98848.59;;;17.65
78369;BMP280;71113;43.092;-89.268;2024-01-27T17:42:59;98842.81;;;17.63
78369;BMP280;71113;43.092;-89.268;2024-01-27T17:45:28;98845.47;;;17.63
78369;BMP280;71113;43.092;-89.268;2024-01-27T17:47:54;98841.25;;;17.62
78369;BMP280;71113;43.092;-89.268;2024-01-27T17:50:20;98832.28;;;17.63
78369;BMP280;71113;43.092;-89.268;2024-01-27T17:52:47;98833.34;;;17.62
78369;BMP280;71113;43.092;-89.268;2024-01-27T17:55:13;98831.28;;;17.59
78369;BMP280;71113;43.092;-89.268;2024-01-27T17:57:42;98827.88;;;17.59
78369;BMP280;71113;43.092;-89.268;2024-01-27T18:00:12;98822.59;;;17.59
78369;BMP280;71113;43.092;-89.268;2024-01-27T18:02:38;98826.28;;;17.58
78369;BMP280;71113;43.092;-89.268;2024-01-27T18:05:04;98816.81;;;17.57
78369;BMP280;71113;43.092;-89.268;2024-01-27T18:07:30;98821.00;;;17.58
78369;BMP280;71113;43.092;-89.268;2024-01-27T18:09:56;98812.31;;;17.57
78369;BMP280;71113;43.092;-89.268;2024-01-27T18:12:22;98810.19;;;17.59
78369;BMP280;71113;43.092;-89.268;2024-01-27T18:14:49;98794.38;;;17.59
78369;BMP280;71113;43.092;-89.268;2024-01-27T18:17:15;98790.66;;;17.60
78369;BMP280;71113;43.092;-89.268;2024-01-27T18:19:40;98784.00;;;17.63
78369;BMP280;71113;43.092;-89.268;2024-01-27T18:22:06;98788.19;;;17.50
78369;BMP280;71113;43.092;-89.268;2024-01-27T18:24:33;98790.72;;;17.42
78369;BMP280;71113;43.092;-89.268;2024-01-27T18:26:59;98785.34;;;17.19
78369;BMP280;71113;43.092;-89.268;2024-01-27T18:29:25;98779.81;;;17.21